Time;durP1;ratioP1;P1;durP2;ratioP2;P2;SDS_P1;SDS_P2;PMS_P1;PMS_P2;Temp;Humidity;BMP_temperature;BMP_pressure;BME280_temperature;BME280_humidity;BME280_pressure;Samples;Min_cycle;Max_cycle;Signal;HPM_P1;HPM_P2
2022/03/11 00:01:42;;;;;;;14.57;7.13;;;;;;;4.10;59.16;101829.50;5091461;28;20056;-84
2022/03/11 00:04:07;;;;;;;13.57;6.93;;;;;;;4.05;58.57;101820.88;5091640;28;20163;-84
2022/03/11 00:06:32;;;;;;;14.23;6.72;;;;;;;4.08;58.32;101826.06;5085507;28;20097;-84
2022/03/11 00:08:58;;;;;;;14.20;7.00;;;;;;;4.09;57.71;101821.81;5095713;28;20027;-84
2022/03/11 00:11:23;;;;;;;14.60;6.90;;;;;;;4.11;58.86;101818.41;5089807;28;20039;-83
2022/03/11 00:13:48;;;;;;;17.20;6.93;;;;;;;4.15;58.45;101814.22;5109798;28;20420;-83
2022/03/11 00:16:14;;;;;;;15.63;7.63;;;;;;;4.20;57.66;101815.16;5093171;28;20024;-83
2022/03/11 00:18:39;;;;;;;15.98;6.95;;;;;;;4.17;56.85;101812.50;5090728;28;20285;-83
2022/03/11 00:21:05;;;;;;;14.07;6.93;;;;;;;4.18;57.56;101807.41;5090208;28;20427;-83
2022/03/11 00:23:31;;;;;;;12.98;6.40;;;;;;;4.17;58.45;101813.38;5075663;28;20027;-83
2022/03/11 00:25:56;;;;;;;14.02;6.72;;;;;;;4.15;56.74;101812.50;5100260;28;20016;-83
2022/03/11 00:28:22;;;;;;;14.90;6.75;;;;;;;4.13;57.48;101805.63;5101668;28;20028;-83
2022/03/11 00:30:47;;;;;;;14.35;6.65;;;;;;;4.12;57.46;101811.56;5097004;28;20028;-83
2022/03/11 00:33:12;;;;;;;13.82;6.53;;;;;;;4.07;58.09;101813.19;5091718;28;20020;-83
2022/03/11 00:35:38;;;;;;;15.85;6.82;;;;;;;4.01;57.46;101802.84;5090082;28;20092;-83
2022/03/11 00:38:03;;;;;;;14.02;7.03;;;;;;;3.96;59.76;101805.28;5088030;28;20033;-83
2022/03/11 00:40:28;;;;;;;13.18;6.70;;;;;;;3.94;58.66;101807.84;5098891;28;20576;-84
2022/03/11 00:42:54;;;;;;;14.77;6.82;;;;;;;3.95;58.40;101801.88;5090413;28;20463;-84
2022/03/11 00:45:19;;;;;;;16.75;7.70;;;;;;;3.91;59.97;101809.47;5090245;28;20032;-84
2022/03/11 00:47:45;;;;;;;14.98;7.43;;;;;;;3.87;57.48;101810.25;5089989;28;20021;-84
2022/03/11 00:50:11;;;;;;;14.77;6.95;;;;;;;3.79;60.15;101805.00;5089579;28;20024;-83
2022/03/11 00:52:37;;;;;;;14.73;7.18;;;;;;;3.69;59.87;101804.75;5091434;28;20504;-83
2022/03/11 00:55:03;;;;;;;13.07;6.68;;;;;;;3.66;60.22;101802.16;5089768;28;20048;-83
2022/03/11 00:57:41;;;;;;;;;;;;;;;;;;;;;
2022/03/11 01:00:36;;;;;;;16.50;7.60;;;;;;;3.50;61.26;101794.16;5092744;28;20023;-84
2022/03/11 01:03:04;;;;;;;13.73;7.30;;;;;;;3.49;62.52;101789.84;5070783;28;20043;-83
2022/03/11 01:05:35;;;;;;;15.30;7.20;;;;;;;3.37;61.49;101791.31;5097368;28;20031;-83
2022/03/11 01:08:01;;;;;;;14.23;7.38;;;;;;;3.34;61.00;101802.38;5104856;28;20031;-83
2022/03/11 01:10:27;;;;;;;15.00;7.35;;;;;;;3.32;60.71;101788.66;5087558;28;20028;-83
2022/03/11 01:12:52;;;;;;;16.15;7.07;;;;;;;3.27;61.39;101786.84;5090307;28;20028;-84
2022/03/11 01:15:17;;;;;;;15.27;7.50;;;;;;;3.28;62.31;101781.72;5090033;28;20051;-83
2022/03/11 01:17:43;;;;;;;16.08;7.55;;;;;;;3.22;62.93;101778.16;5074759;28;20028;-83
2022/03/11 01:20:10;;;;;;;13.43;7.07;;;;;;;3.17;62.88;101776.38;5070611;28;20020;-83
2022/03/11 01:22:35;;;;;;;16.08;7.20;;;;;;;3.14;62.12;101778.88;5072883;28;20028;-83
2022/03/11 01:25:01;;;;;;;14.90;7.50;;;;;;;3.10;63.67;101771.97;5099245;28;20039;-83
2022/03/11 01:27:26;;;;;;;17.30;7.32;;;;;;;3.08;61.64;101768.50;5088948;28;20043;-83
2022/03/11 01:29:51;;;;;;;14.27;6.77;;;;;;;3.07;61.50;101764.19;5108558;28;20051;-83
2022/03/11 01:32:17;;;;;;;14.07;7.28;;;;;;;3.08;61.39;101763.38;5075022;28;20286;-83
2022/03/11 01:34:42;;;;;;;14.55;7.45;;;;;;;3.05;64.57;101758.19;5093007;28;20046;-83
2022/03/11 01:37:08;;;;;;;16.20;7.63;;;;;;;2.98;64.31;101751.22;5090367;28;20024;-83
2022/03/11 01:39:33;;;;;;;16.23;7.75;;;;;;;2.96;62.51;101750.31;5096587;28;20377;-83
2022/03/11 01:41:59;;;;;;;15.30;7.82;;;;;;;2.94;64.18;101757.06;5101637;28;20055;-83
2022/03/11 01:44:25;;;;;;;16.58;7.32;;;;;;;2.94;62.79;101745.97;5110059;28;20028;-83
2022/03/11 01:46:51;;;;;;;15.20;7.30;;;;;;;2.96;61.39;101746.88;5102474;28;20024;-83
2022/03/11 01:49:17;;;;;;;15.43;6.97;;;;;;;2.98;63.91;101738.41;5091373;28;20266;-84
2022/03/11 01:51:43;;;;;;;17.13;7.47;;;;;;;3.01;61.45;101730.78;5096164;28;20170;-84
2022/03/11 01:54:09;;;;;;;17.00;7.70;;;;;;;3.00;62.32;101731.59;5074186;28;20035;-84
2022/03/11 01:56:36;;;;;;;16.42;7.68;;;;;;;3.04;61.58;101723.16;5095275;28;20022;-83
2022/03/11 01:59:01;;;;;;;15.18;7.40;;;;;;;3.05;62.95;101722.34;5093088;28;20024;-84
2022/03/11 02:01:27;;;;;;;15.43;7.38;;;;;;;3.09;60.97;101719.00;5091804;28;20446;-83
2022/03/11 02:03:52;;;;;;;15.55;7.00;;;;;;;3.09;62.19;101716.44;5092308;28;20043;-84
2022/03/11 02:06:18;;;;;;;15.50;7.25;;;;;;;3.10;63.67;101714.75;5101557;28;20028;-83
2022/03/11 02:08:45;;;;;;;15.10;7.13;;;;;;;3.08;61.59;101709.59;5092348;28;20135;-83
2022/03/11 02:11:11;;;;;;;16.85;7.30;;;;;;;3.10;62.79;101707.94;5092860;28;20120;-83
2022/03/11 02:13:46;;;;;;;14.63;7.15;;;;;;;3.15;61.12;101702.88;5094662;28;20032;-83
2022/03/11 02:16:16;;;;;;;15.43;7.22;;;;;;;3.18;61.66;101702.97;5099497;28;20032;-83
2022/03/11 02:18:41;;;;;;;16.33;7.65;;;;;;;3.20;60.73;101695.31;5092901;28;20028;-83
2022/03/11 02:21:09;;;;;;;15.68;7.38;;;;;;;3.22;59.68;101696.19;5092224;28;20028;-83
2022/03/11 02:23:43;;;;;;;15.55;7.13;;;;;;;3.25;60.07;101680.91;5103031;28;20019;-83
2022/03/11 02:26:09;;;;;;;15.13;7.22;;;;;;;3.28;60.46;101683.50;5079414;28;20032;-83
2022/03/11 02:28:34;;;;;;;15.18;7.75;;;;;;;3.29;60.59;101675.84;5092328;28;20439;-83
2022/03/11 02:30:59;;;;;;;15.70;7.22;;;;;;;3.31;60.91;101675.88;5093174;28;20020;-84
2022/03/11 02:33:25;;;;;;;16.40;7.53;;;;;;;3.29;60.25;101680.09;5092083;28;20020;-83
2022/03/11 02:35:50;;;;;;;14.23;6.88;;;;;;;3.27;61.11;101672.41;5091881;28;20302;-83
2022/03/11 02:38:15;;;;;;;15.18;7.40;;;;;;;3.30;61.37;101666.47;5100163;28;20031;-83
2022/03/11 02:40:40;;;;;;;17.45;7.68;;;;;;;3.29;60.25;101664.72;5095589;28;20042;-84
2022/03/11 02:43:06;;;;;;;15.82;7.60;;;;;;;3.27;60.97;101664.72;5102430;28;20032;-84
2022/03/11 02:45:31;;;;;;;15.48;8.00;;;;;;;3.29;59.53;101662.16;5092691;28;20020;-84
2022/03/11 02:47:56;;;;;;;17.88;7.20;;;;;;;3.28;59.94;101663.00;5101525;28;20027;-84
2022/03/11 02:50:22;;;;;;;15.15;7.32;;;;;;;3.32;59.68;101667.38;5096193;28;20038;-84
2022/03/11 02:52:47;;;;;;;15.38;7.10;;;;;;;3.30;60.05;101659.66;5107017;28;20034;-84
2022/03/11 02:55:12;;;;;;;15.52;7.18;;;;;;;3.25;60.06;101653.59;5100015;28;20059;-83
2022/03/11 02:57:38;;;;;;;16.88;7.78;;;;;;;3.23;60.55;101655.25;5074860;28;20028;-83
2022/03/11 03:00:04;;;;;;;20.17;7.75;;;;;;;3.25;60.29;101651.03;5089096;28;20263;-84
2022/03/11 03:02:29;;;;;;;15.93;7.25;;;;;;;3.23;59.49;101650.13;5092077;28;20016;-84
2022/03/11 03:04:54;;;;;;;15.68;7.25;;;;;;;3.25;59.76;101652.72;5091443;28;20039;-84
2022/03/11 03:07:20;;;;;;;16.50;7.35;;;;;;;3.26;60.15;101655.31;5090863;28;20118;-83
2022/03/11 03:09:46;;;;;;;14.68;7.10;;;;;;;3.27;62.03;101651.06;5091136;28;20028;-84
2022/03/11 03:12:11;;;;;;;15.67;7.20;;;;;;;3.24;60.87;101649.28;5081567;28;20018;-83
2022/03/11 03:14:37;;;;;;;15.35;7.32;;;;;;;3.29;60.11;101655.34;5100601;28;20286;-83
2022/03/11 03:17:04;;;;;;;16.65;7.45;;;;;;;3.32;59.36;101644.31;5091115;28;20035;-83
2022/03/11 03:19:30;;;;;;;17.10;7.30;;;;;;;3.32;59.32;101650.31;5082460;28;20134;-83
2022/03/11 03:21:55;;;;;;;15.25;7.38;;;;;;;3.32;59.03;101646.88;5094286;28;20487;-83
2022/03/11 03:24:20;;;;;;;19.08;8.00;;;;;;;3.31;60.32;101646.00;5105456;28;20020;-84
2022/03/11 03:26:46;;;;;;;14.27;6.60;;;;;;;3.28;59.15;101648.50;5076066;28;20035;-84
2022/03/11 03:29:11;;;;;;;18.00;7.28;;;;;;;3.26;59.66;101645.06;5090148;28;20024;-83
2022/03/11 03:31:36;;;;;;;15.68;7.40;;;;;;;3.24;59.53;101649.28;5101910;28;20024;-83
2022/03/11 03:34:01;;;;;;;16.83;7.43;;;;;;;3.24;59.23;101641.59;5082109;28;20070;-83
2022/03/11 03:36:27;;;;;;;15.68;7.25;;;;;;;3.22;59.38;101637.28;5098499;28;20296;-83
2022/03/11 03:38:52;;;;;;;14.20;6.93;;;;;;;3.22;59.66;101640.69;5092905;28;20028;-83
2022/03/11 03:41:18;;;;;;;18.27;7.38;;;;;;;3.24;59.28;101639.03;5077540;28;20321;-83
2022/03/11 03:43:43;;;;;;;14.18;6.95;;;;;;;3.25;59.37;101645.03;5097876;28;20027;-83
2022/03/11 03:46:08;;;;;;;14.90;7.63;;;;;;;3.27;59.44;101640.81;5109300;28;20015;-83
2022/03/11 03:48:34;;;;;;;14.18;7.10;;;;;;;3.26;59.00;101629.69;5101550;28;20086;-83
2022/03/11 03:50:59;;;;;;;16.75;7.07;;;;;;;3.26;60.02;101642.50;5103484;28;20539;-83
2022/03/11 03:53:25;;;;;;;15.85;7.30;;;;;;;3.24;59.71;101638.19;5097272;28;20713;-83
2022/03/11 03:55:50;;;;;;;16.65;7.20;;;;;;;3.26;58.93;101636.50;5098850;28;20502;-83
2022/03/11 03:58:15;;;;;;;14.27;6.68;;;;;;;3.28;59.19;101630.56;5072440;28;20023;-83
2022/03/11 04:00:41;;;;;;;15.05;6.82;;;;;;;3.29;59.41;101634.84;5089404;28;20438;-83
2022/03/11 04:03:06;;;;;;;15.73;6.93;;;;;;;3.24;59.57;101631.34;5090654;28;20024;-83
2022/03/11 04:05:31;;;;;;;14.30;7.22;;;;;;;3.21;60.38;101631.28;5090194;28;20027;-83
2022/03/11 04:07:57;;;;;;;13.18;6.75;;;;;;;3.23;60.14;101623.63;5075721;28;20030;-83
2022/03/11 04:10:22;;;;;;;14.05;6.97;;;;;;;3.21;58.55;101625.31;5095993;28;20024;-83
2022/03/11 04:12:48;;;;;;;17.40;7.05;;;;;;;3.25;58.74;101633.09;5091459;28;20076;-83
2022/03/11 04:15:13;;;;;;;14.85;7.40;;;;;;;3.25;59.34;101627.09;5098175;28;20445;-83
2022/03/11 04:17:39;;;;;;;15.32;6.95;;;;;;;3.25;59.58;101627.09;5090087;28;20020;-83
2022/03/11 04:20:06;;;;;;;14.80;6.90;;;;;;;3.25;58.59;101629.66;5090758;28;20171;-83
2022/03/11 04:22:31;;;;;;;14.13;6.55;;;;;;;3.25;59.18;101620.28;5073360;28;20317;-83
2022/03/11 04:24:56;;;;;;;15.18;6.85;;;;;;;3.24;59.22;101626.22;5090381;28;20020;-83
2022/03/11 04:27:21;;;;;;;15.05;6.65;;;;;;;3.25;58.48;101627.09;5080835;28;20028;-83
2022/03/11 04:29:47;;;;;;;16.73;6.90;;;;;;;3.26;58.89;101618.59;5093365;28;20027;-84
2022/03/11 04:32:12;;;;;;;15.70;6.85;;;;;;;3.26;59.24;101622.00;5094709;28;20020;-83
2022/03/11 04:34:38;;;;;;;15.35;6.72;;;;;;;3.24;58.54;101621.09;5089896;28;20024;-83
2022/03/11 04:37:03;;;;;;;17.00;7.07;;;;;;;3.24;58.50;101610.84;5072071;28;20077;-83
2022/03/11 04:39:31;;;;;;;14.45;6.70;;;;;;;3.26;58.53;101614.31;5092456;28;20113;-83
2022/03/11 04:41:57;;;;;;;14.20;6.40;;;;;;;3.26;58.59;101613.47;5071442;28;20028;-83
2022/03/11 04:44:22;;;;;;;14.82;7.05;;;;;;;3.27;58.79;101618.63;5093038;28;20114;-84
2022/03/11 04:46:48;;;;;;;15.25;6.63;;;;;;;3.27;58.46;101610.94;5091410;28;20028;-83
2022/03/11 04:49:13;;;;;;;14.43;6.95;;;;;;;3.26;59.04;101610.91;5089520;28;20373;-83
2022/03/11 04:51:39;;;;;;;15.27;6.53;;;;;;;3.23;59.05;101621.06;5089456;28;20024;-83
2022/03/11 04:54:06;;;;;;;17.88;7.22;;;;;;;3.19;58.93;101615.03;5090215;28;20026;-83
2022/03/11 04:56:32;;;;;;;13.90;6.93;;;;;;;3.21;59.90;101609.97;5089900;28;20024;-83
2022/03/11 04:58:57;;;;;;;13.10;6.32;;;;;;;3.21;58.99;101621.03;5092749;28;20023;-83
2022/03/11 05:01:23;;;;;;;13.68;6.65;;;;;;;3.20;58.36;101614.22;5089439;28;20032;-83
2022/03/11 05:03:48;;;;;;;16.60;6.75;;;;;;;3.22;59.12;101609.97;5089720;28;20030;-83
2022/03/11 05:06:13;;;;;;;14.30;6.60;;;;;;;3.23;58.76;101613.38;5088692;28;20055;-83
2022/03/11 05:08:39;;;;;;;12.93;6.07;;;;;;;3.26;58.86;101606.63;5102934;28;20034;-83
2022/03/11 05:11:05;;;;;;;16.08;6.72;;;;;;;3.28;58.74;101604.06;5094317;28;20667;-83
2022/03/11 05:13:30;;;;;;;13.50;6.32;;;;;;;3.38;58.35;101606.00;5104159;28;20462;-83
2022/03/11 05:15:56;;;;;;;13.60;6.82;;;;;;;3.47;58.55;101598.47;5089205;28;20133;-83
2022/03/11 05:18:21;;;;;;;13.52;6.45;;;;;;;3.52;58.09;101604.53;5089778;28;20042;-83
2022/03/11 05:20:46;;;;;;;15.73;6.50;;;;;;;3.52;58.00;101602.84;5089418;28;20028;-83
2022/03/11 05:23:12;;;;;;;14.00;6.63;;;;;;;3.53;58.34;101591.75;5099378;28;20309;-83
2022/03/11 05:25:37;;;;;;;12.70;6.28;;;;;;;3.56;57.97;101598.59;5095514;28;20059;-84
2022/03/11 05:28:03;;;;;;;14.73;6.63;;;;;;;3.52;57.90;101595.13;5097351;28;20073;-84
2022/03/11 05:30:28;;;;;;;12.90;6.57;;;;;;;3.53;58.28;101588.31;5088717;28;20542;-84
2022/03/11 05:32:53;;;;;;;15.00;6.45;;;;;;;3.52;58.76;101596.84;5089116;28;20024;-84
2022/03/11 05:35:19;;;;;;;20.00;6.93;;;;;;;3.50;58.27;101589.13;5070693;28;20020;-84
2022/03/11 05:37:46;;;;;;;19.02;6.63;;;;;;;3.54;58.25;101590.06;5084384;28;20035;-84
2022/03/11 05:40:11;;;;;;;14.68;6.68;;;;;;;3.55;58.95;101596.88;5083597;28;20500;-84
2022/03/11 05:42:37;;;;;;;15.20;7.05;;;;;;;3.56;58.91;101583.22;5089186;28;20040;-83
2022/03/11 05:45:02;;;;;;;14.80;6.80;;;;;;;3.54;58.61;101588.34;5089412;28;20553;-83
2022/03/11 05:47:28;;;;;;;15.15;7.20;;;;;;;3.52;59.07;101584.88;5084942;28;20040;-84
2022/03/11 05:49:54;;;;;;;14.80;6.78;;;;;;;3.51;58.79;101583.16;5070875;28;20032;-84
2022/03/11 05:52:21;;;;;;;14.73;6.97;;;;;;;3.52;59.14;101581.47;5087831;28;20024;-84
2022/03/11 05:54:46;;;;;;;16.08;7.15;;;;;;;3.54;58.85;101584.94;5082424;28;20023;-84
2022/03/11 05:57:11;;;;;;;23.13;8.17;;;;;;;3.55;59.63;101571.25;5091890;28;20024;-84
2022/03/11 05:59:37;;;;;;;17.10;7.10;;;;;;;3.57;58.94;101574.72;5099839;28;20278;-83
2022/03/11 06:02:03;;;;;;;18.83;7.05;;;;;;;3.60;58.85;101567.06;5088777;28;20040;-83
2022/03/11 06:04:29;;;;;;;15.13;7.07;;;;;;;3.63;58.96;101568.81;5100251;28;20106;-83
2022/03/11 06:06:54;;;;;;;16.70;7.47;;;;;;;3.63;59.09;101571.38;5094746;28;20040;-83
2022/03/11 06:09:19;;;;;;;16.58;6.88;;;;;;;3.66;59.54;101571.44;5090653;28;20020;-84
2022/03/11 06:11:44;;;;;;;15.27;7.00;;;;;;;3.63;59.10;101576.50;5088913;28;20042;-84
2022/03/11 06:14:10;;;;;;;16.15;7.07;;;;;;;3.65;59.41;101572.28;5088671;28;20282;-84
2022/03/11 06:16:38;;;;;;;16.45;7.40;;;;;;;3.63;59.29;101574.81;5088650;28;20029;-84
2022/03/11 06:19:03;;;;;;;14.38;7.03;;;;;;;3.65;59.90;101574.84;5085361;28;20077;-84
2022/03/11 06:21:28;;;;;;;20.55;7.32;;;;;;;3.67;59.81;101575.72;5088439;28;20036;-84
2022/03/11 06:23:54;;;;;;;15.93;7.30;;;;;;;3.71;59.74;101575.78;5089616;28;20388;-84
2022/03/11 06:26:19;;;;;;;19.42;7.78;;;;;;;3.73;59.51;101579.25;5095491;28;20464;-84
2022/03/11 06:28:44;;;;;;;19.80;7.47;;;;;;;3.78;59.77;101576.75;5090151;28;20112;-84
2022/03/11 06:31:11;;;;;;;14.75;7.47;;;;;;;3.84;59.23;101577.72;5092174;28;20384;-84
2022/03/11 06:33:37;;;;;;;18.05;7.55;;;;;;;3.86;59.21;101578.59;5077553;28;20032;-84
2022/03/11 06:36:02;;;;;;;15.85;7.55;;;;;;;3.93;59.33;101575.28;5077131;28;20174;-84
2022/03/11 06:38:28;;;;;;;15.65;7.30;;;;;;;3.97;59.42;101569.34;5079022;28;20055;-84
2022/03/11 06:40:54;;;;;;;15.27;7.43;;;;;;;4.04;59.19;101579.72;5089973;28;20440;-83
2022/03/11 06:43:19;;;;;;;16.42;7.22;;;;;;;4.09;59.10;101589.22;5091549;28;20024;-83
2022/03/11 06:45:45;;;;;;;14.68;7.50;;;;;;;4.17;59.09;101579.91;5092936;28;20028;-84
2022/03/11 06:48:10;;;;;;;18.63;8.07;;;;;;;4.30;59.39;101581.78;5091572;28;20532;-83
2022/03/11 06:50:35;;;;;;;16.40;8.32;;;;;;;4.53;59.03;101587.25;5091387;28;20778;-83
2022/03/11 06:53:01;;;;;;;17.02;7.85;;;;;;;5.46;59.14;101577.97;5091534;28;20130;-83
2022/03/11 06:55:26;;;;;;;16.35;7.68;;;;;;;7.05;55.45;101567.75;5092490;28;20610;-84
2022/03/11 06:57:51;;;;;;;15.50;7.60;;;;;;;7.92;50.55;101561.78;5092197;28;20028;-83
2022/03/11 07:00:17;;;;;;;18.60;7.88;;;;;;;8.39;50.17;101550.53;5073518;28;20020;-83
2022/03/11 07:02:42;;;;;;;20.50;7.95;;;;;;;9.49;46.65;101553.34;5107426;28;20020;-84
2022/03/11 07:05:08;;;;;;;14.65;7.32;;;;;;;10.32;45.54;101551.72;5091457;28;20380;-84
2022/03/11 07:07:34;;;;;;;16.25;7.93;;;;;;;11.21;43.60;101548.81;5088545;28;20052;-84
2022/03/11 07:10:00;;;;;;;17.80;8.05;;;;;;;11.86;40.40;101551.25;5090269;28;20034;-84
2022/03/11 07:12:27;;;;;;;16.17;8.13;;;;;;;11.74;41.23;101551.44;5070932;28;20028;-84
2022/03/11 07:14:52;;;;;;;15.32;8.23;;;;;;;11.60;40.25;101565.53;5089461;28;20028;-84
2022/03/11 07:17:17;;;;;;;17.52;8.95;;;;;;;11.26;40.54;101560.00;5091102;28;20039;-83
2022/03/11 07:19:43;;;;;;;17.73;8.45;;;;;;;10.41;41.05;101563.72;5092229;28;20031;-83
2022/03/11 07:22:08;;;;;;;16.60;8.38;;;;;;;9.49;43.16;101559.38;5090568;28;20039;-83
2022/03/11 07:24:33;;;;;;;18.58;9.05;;;;;;;8.73;45.34;101559.00;5084654;28;20037;-83
2022/03/11 07:26:59;;;;;;;17.15;9.07;;;;;;;8.16;46.69;101567.78;5090841;28;20441;-83
2022/03/11 07:29:24;;;;;;;18.05;9.07;;;;;;;7.75;47.96;101565.25;5092255;28;20453;-83
2022/03/11 07:31:50;;;;;;;17.83;8.40;;;;;;;7.72;48.80;101573.84;5090642;28;20489;-83
2022/03/11 07:34:16;;;;;;;18.27;8.82;;;;;;;7.74;48.14;101573.84;5090153;28;20604;-83
2022/03/11 07:36:42;;;;;;;18.02;8.77;;;;;;;7.50;48.90;101569.56;5088846;28;20028;-83
2022/03/11 07:39:09;;;;;;;17.33;9.52;;;;;;;7.29;50.29;101577.28;5086890;28;20030;-84
2022/03/11 07:41:36;;;;;;;17.00;8.88;;;;;;;7.22;49.28;101572.97;5091434;28;20286;-84
2022/03/11 07:44:01;;;;;;;16.83;8.90;;;;;;;7.17;49.75;101566.91;5083642;28;20496;-84
2022/03/11 07:46:29;;;;;;;18.88;9.07;;;;;;;7.20;51.10;101569.53;5104933;28;20030;-83
2022/03/11 07:48:55;;;;;;;18.90;9.27;;;;;;;7.30;49.94;101561.78;5091531;28;20016;-84
2022/03/11 07:51:20;;;;;;;16.25;8.95;;;;;;;7.38;50.00;101564.38;5092054;28;20819;-84
2022/03/11 07:53:46;;;;;;;17.90;9.02;;;;;;;7.71;49.25;101559.22;5072175;28;20046;-84
2022/03/11 07:56:13;;;;;;;18.77;9.15;;;;;;;8.05;49.10;101554.03;5090092;28;20031;-84
2022/03/11 07:58:39;;;;;;;19.10;9.32;;;;;;;8.39;49.79;101547.09;5098718;28;20051;-84
2022/03/11 08:01:07;;;;;;;19.45;9.40;;;;;;;8.65;48.22;101546.13;5091088;28;20024;-85
2022/03/11 08:03:33;;;;;;;17.48;9.38;;;;;;;8.88;47.33;101550.31;5080356;28;20074;-84
2022/03/11 08:05:59;;;;;;;20.35;9.75;;;;;;;8.83;47.42;101541.72;5086434;28;20048;-85
2022/03/11 08:08:24;;;;;;;21.13;9.52;;;;;;;9.03;47.33;101542.47;5089136;28;20063;-85
2022/03/11 08:10:49;;;;;;;20.10;9.23;;;;;;;9.48;45.96;101544.72;5085526;28;20030;-84
2022/03/11 08:13:15;;;;;;;18.02;8.98;;;;;;;9.76;44.92;101536.72;5090821;28;20385;-84
2022/03/11 08:15:40;;;;;;;19.70;10.30;;;;;;;10.04;46.09;101534.72;5090252;28;20344;-84
2022/03/11 08:18:06;;;;;;;18.10;9.80;;;;;;;10.85;43.19;101534.66;5071576;28;20031;-84
2022/03/11 08:20:31;;;;;;;18.05;9.27;;;;;;;11.44;40.81;101521.63;5091804;28;20545;-84
2022/03/11 08:22:56;;;;;;;19.33;10.13;;;;;;;11.94;42.14;101525.09;5089221;28;20027;-84
2022/03/11 08:25:26;;;;;;;19.08;9.75;;;;;;;12.53;40.27;101523.94;5072611;28;20027;-84
2022/03/11 08:27:53;;;;;;;20.90;9.77;;;;;;;13.14;38.61;101516.56;5091230;28;20016;-85
2022/03/11 08:30:18;;;;;;;19.88;9.55;;;;;;;14.08;37.64;101517.63;5077887;28;20095;-83
2022/03/11 08:32:44;;;;;;;18.58;10.07;;;;;;;14.78;36.18;101510.41;5105098;28;20050;-83
2022/03/11 08:35:09;;;;;;;20.13;10.23;;;;;;;15.09;34.86;101502.47;5094601;28;20024;-85
2022/03/11 08:37:36;;;;;;;21.13;10.50;;;;;;;15.19;33.85;101498.66;5090329;28;20043;-85
2022/03/11 08:40:06;;;;;;;20.23;11.27;;;;;;;14.99;33.90;101499.31;5090651;28;20145;-85
2022/03/11 08:42:32;;;;;;;18.30;10.55;;;;;;;14.74;34.45;101503.53;5109130;28;20028;-84
2022/03/11 08:44:59;;;;;;;19.65;10.15;;;;;;;14.47;35.94;101499.16;5111203;28;20042;-85
2022/03/11 08:47:25;;;;;;;21.20;11.20;;;;;;;14.19;35.45;101502.50;5109394;28;20045;-85
2022/03/11 08:49:53;;;;;;;19.70;11.18;;;;;;;14.13;35.98;101496.63;5110609;28;20023;-85
2022/03/11 08:52:19;;;;;;;19.63;10.75;;;;;;;13.70;35.70;101502.16;5087694;28;20028;-85
2022/03/11 08:54:45;;;;;;;21.08;11.10;;;;;;;13.26;36.35;101498.91;5108431;28;20095;-85
2022/03/11 08:57:11;;;;;;;22.25;11.60;;;;;;;13.02;37.56;101497.72;5095893;28;20521;-85
2022/03/11 08:59:36;;;;;;;23.40;10.95;;;;;;;12.89;39.12;101498.91;5092221;28;20122;-85
2022/03/11 09:02:07;;;;;;;17.87;10.83;;;;;;;12.74;39.83;101493.16;5110074;28;20396;-85
2022/03/11 09:04:34;;;;;;;20.60;11.02;;;;;;;12.50;40.20;101492.78;5110763;28;20446;-85
2022/03/11 09:06:59;;;;;;;25.23;11.85;;;;;;;12.18;39.18;101490.88;5085802;28;20121;-85
2022/03/11 09:09:24;;;;;;;22.27;11.52;;;;;;;11.91;40.07;101493.13;5098917;28;20448;-85
2022/03/11 09:11:50;;;;;;;19.70;11.30;;;;;;;11.68;40.61;101496.97;5110222;28;20027;-85
2022/03/11 09:14:15;;;;;;;25.20;11.60;;;;;;;11.61;41.34;101492.78;5102476;28;20265;-85
2022/03/11 09:16:40;;;;;;;19.20;11.50;;;;;;;11.52;41.50;101492.94;5104088;28;20027;-85
2022/03/11 09:19:06;;;;;;;23.35;11.45;;;;;;;11.48;43.66;101489.53;5110565;28;20023;-85
2022/03/11 09:21:31;;;;;;;21.60;10.90;;;;;;;11.52;42.48;101489.50;5079887;28;20171;-85
2022/03/11 09:23:57;;;;;;;20.30;11.00;;;;;;;11.88;41.47;101483.66;5089956;28;20024;-85
2022/03/11 09:26:22;;;;;;;24.27;11.15;;;;;;;12.01;40.76;101479.09;5089807;28;20028;-85
2022/03/11 09:28:47;;;;;;;22.00;10.80;;;;;;;11.83;42.14;101475.09;5071849;28;20452;-85
2022/03/11 09:31:13;;;;;;;22.55;11.07;;;;;;;11.67;42.14;101465.88;5088351;28;20038;-85
2022/03/11 09:33:40;;;;;;;24.20;11.55;;;;;;;11.58;41.27;101472.06;5087181;28;20320;-85
2022/03/11 09:36:06;;;;;;;23.67;11.27;;;;;;;11.50;42.39;101471.34;5089276;28;20030;-85
2022/03/11 09:38:32;;;;;;;20.48;10.90;;;;;;;11.44;42.19;101474.91;5093178;28;20302;-85
2022/03/11 09:40:59;;;;;;;25.17;11.20;;;;;;;11.39;42.67;101474.13;5071587;28;20024;-86
2022/03/11 09:43:25;;;;;;;22.42;11.38;;;;;;;11.34;42.25;101472.47;5089930;28;20020;-85
2022/03/11 09:45:51;;;;;;;25.98;11.38;;;;;;;11.28;42.77;101480.38;5071332;28;20078;-85
2022/03/11 09:48:17;;;;;;;21.90;11.00;;;;;;;11.20;44.09;101467.50;5091723;28;20031;-85
2022/03/11 09:50:43;;;;;;;24.48;11.52;;;;;;;11.28;43.51;101463.06;5100647;28;20099;-85
2022/03/11 09:53:09;;;;;;;23.33;11.50;;;;;;;11.39;44.71;101460.28;5105052;28;20122;-85
2022/03/11 09:55:39;;;;;;;24.58;11.45;;;;;;;11.43;42.71;101441.19;5110014;28;20196;-85
2022/03/11 09:58:04;;;;;;;26.30;11.38;;;;;;;11.44;42.52;101448.09;5111508;28;20032;-85
2022/03/11 10:00:29;;;;;;;22.23;10.65;;;;;;;11.45;43.46;101444.63;5109650;28;20035;-85
2022/03/11 10:02:55;;;;;;;24.27;11.52;;;;;;;11.48;43.70;101439.34;5101050;28;20024;-85
2022/03/11 10:05:22;;;;;;;21.23;10.43;;;;;;;11.50;44.22;101429.81;5113968;28;20027;-85
2022/03/11 10:08:03;;;;;;;21.02;10.95;;;;;;;11.60;43.94;101431.31;5113549;28;20416;-85
2022/03/11 10:10:28;;;;;;;26.58;10.75;;;;;;;11.65;44.06;101426.94;5105309;28;20082;-84
2022/03/11 10:12:54;;;;;;;23.85;10.70;;;;;;;11.62;43.09;101426.13;5077819;28;20024;-85
2022/03/11 10:15:27;;;;;;;24.25;9.68;;;;;;;11.68;44.09;101421.66;5093044;28;20035;-85
2022/03/11 10:17:53;;;;;;;22.33;10.52;;;;;;;11.73;44.28;101419.84;5090633;28;20065;-85
2022/03/11 10:20:19;;;;;;;21.38;10.50;;;;;;;11.81;43.50;101417.97;5090952;28;20027;-85
2022/03/11 10:22:45;;;;;;;27.48;11.30;;;;;;;11.86;44.19;101403.19;5095025;28;20085;-86
2022/03/11 10:25:18;;;;;;;23.38;10.80;;;;;;;11.96;43.76;101413.38;5074815;28;20028;-85
2022/03/11 10:28:08;;;;;;;24.35;10.93;;;;;;;12.02;43.98;101405.44;5093100;28;20024;-85
2022/03/11 10:30:36;;;;;;;24.33;11.38;;;;;;;12.08;43.67;101405.31;5092874;28;20028;-85
2022/03/11 10:33:05;;;;;;;24.40;11.10;;;;;;;12.13;44.21;101414.75;5092829;28;20544;-85
2022/03/11 10:35:38;;;;;;;19.80;10.68;;;;;;;12.21;43.40;101409.38;5086084;28;20036;-85
2022/03/11 10:38:12;;;;;;;21.67;10.88;;;;;;;12.20;43.22;101403.34;5092827;28;20022;-85
2022/03/11 10:40:49;;;;;;;35.33;11.65;;;;;;;12.18;42.25;101404.25;5092670;28;20098;-85
2022/03/11 10:43:20;;;;;;;21.65;10.38;;;;;;;12.16;42.88;101403.41;5074597;28;20028;-86
2022/03/11 10:45:49;;;;;;;35.85;11.55;;;;;;;12.08;42.14;101389.72;5092809;28;20050;-85
2022/03/11 10:48:16;;;;;;;24.08;10.80;;;;;;;12.08;44.02;101381.91;5092253;28;20023;-86
2022/03/11 10:50:42;;;;;;;29.08;11.75;;;;;;;12.15;43.46;101392.16;5097214;28;20073;-85
2022/03/11 10:53:09;;;;;;;26.05;11.23;;;;;;;12.22;43.43;101387.69;5094355;28;20386;-86
2022/03/11 10:55:41;;;;;;;27.30;12.18;;;;;;;12.29;43.19;101384.06;5112770;28;20032;-85
2022/03/11 10:58:07;;;;;;;25.40;11.55;;;;;;;12.39;43.40;101382.13;5096676;28;20476;-85
2022/03/11 11:00:36;;;;;;;27.55;11.98;;;;;;;12.50;44.24;101361.91;5104180;28;20038;-84
2022/03/11 11:03:07;;;;;;;30.20;11.60;;;;;;;12.47;43.07;101373.28;5107010;28;20024;-85
2022/03/11 11:05:33;;;;;;;25.70;12.02;;;;;;;12.49;42.77;101379.25;5107868;28;20032;-85
2022/03/11 11:08:00;;;;;;;23.73;10.90;;;;;;;12.55;43.11;101367.91;5078728;28;20020;-85
2022/03/11 11:10:28;;;;;;;24.17;11.20;;;;;;;12.58;43.55;101368.66;5091070;28;20023;-85
2022/03/11 11:12:54;;;;;;;25.58;11.43;;;;;;;12.62;42.85;101372.06;5073598;28;20053;-85
2022/03/11 11:15:20;;;;;;;25.73;11.27;;;;;;;12.60;42.52;101366.88;5103363;28;20023;-85
2022/03/11 11:17:49;;;;;;;25.95;11.50;;;;;;;12.59;42.00;101365.19;5112241;28;20027;-85